createdAt,value
2024-04-18T00:07:25.593Z,5.66
2024-04-18T00:17:48.205Z,5.58
2024-04-18T00:27:58.603Z,5.43
2024-04-18T00:38:16.738Z,5.09
2024-04-18T00:48:19.685Z,5.08
2024-04-18T00:58:22.638Z,5.10
2024-04-18T01:08:25.476Z,4.98
2024-04-18T01:18:35.542Z,4.78
2024-04-18T01:29:07.464Z,4.46
2024-04-18T01:39:10.088Z,4.39
2024-04-18T01:49:12.821Z,4.33
2024-04-18T01:59:30.445Z,4.05
2024-04-18T02:09:33.058Z,3.75
2024-04-18T02:19:55.605Z,3.57
2024-04-18T02:30:16.200Z,3.66
2024-04-18T02:40:18.833Z,3.63
2024-04-18T02:50:35.568Z,3.40
2024-04-18T03:00:38.977Z,3.44
2024-04-18T03:10:50.838Z,3.26
2024-04-18T03:21:10.533Z,3.43
2024-04-18T03:31:19.230Z,3.23
2024-04-18T03:41:21.862Z,2.74
2024-04-18T03:51:43.124Z,2.70
2024-04-18T04:02:14.975Z,2.65
2024-04-18T04:12:17.824Z,2.91
2024-04-18T04:22:40.508Z,3.21
2024-04-18T04:33:01.179Z,3.44
2024-04-18T04:43:09.649Z,3.71
2024-04-18T04:53:12.554Z,4.20
2024-04-18T05:03:34.027Z,4.28
2024-04-18T05:13:56.608Z,4.85
2024-04-18T05:23:59.745Z,5.17
2024-04-18T05:34:02.537Z,5.59
2024-04-18T05:44:05.477Z,5.89
2024-04-18T05:54:08.957Z,6.94
2024-04-18T06:04:31.572Z,7.48
2024-04-18T06:15:06.612Z,7.54
2024-04-18T06:25:09.359Z,8.01
2024-04-18T06:35:11.951Z,8.67
2024-04-18T06:45:16.363Z,8.74
2024-04-18T06:55:19.058Z,9.29
2024-04-18T07:05:22.503Z,9.09
2024-04-18T07:15:25.561Z,9.49
2024-04-18T07:25:46.757Z,10.08
2024-04-18T07:36:04.641Z,10.61
2024-04-18T07:46:07.488Z,10.70
2024-04-18T07:56:10.779Z,11.10
2024-04-18T08:06:15.873Z,11.68
2024-04-18T08:16:20.546Z,10.71
2024-04-18T08:26:25.331Z,11.78
2024-04-18T08:36:28.140Z,11.39
2024-04-18T08:46:39.726Z,10.54
2024-04-18T08:56:48.498Z,11.86
2024-04-18T09:06:51.321Z,11.71
2024-04-18T09:16:54.552Z,12.65
2024-04-18T09:26:57.707Z,12.34
2024-04-18T09:37:08.451Z,13.29
2024-04-18T09:47:12.447Z,14.33
2024-04-18T09:57:16.974Z,12.24
2024-04-18T10:07:21.892Z,14.05
2024-04-18T10:17:30.186Z,14.96
2024-04-18T10:27:43.223Z,15.45
2024-04-18T10:37:55.855Z,15.04
2024-04-18T10:48:00.209Z,15.11
2024-04-18T10:58:04.535Z,17.06
2024-04-18T11:08:10.896Z,13.31
2024-04-18T11:18:13.816Z,14.61
2024-04-18T11:28:18.827Z,16.30
2024-04-18T11:38:22.312Z,14.79
2024-04-18T11:48:25.759Z,15.25
2024-04-18T11:58:29.212Z,16.33
2024-04-18T12:08:32.465Z,16.37
2024-04-18T12:18:35.824Z,14.11
2024-04-18T12:28:59.152Z,13.64
2024-04-18T12:39:07.487Z,16.15
2024-04-18T12:49:11.165Z,17.13
2024-04-18T12:59:15.711Z,15.85
2024-04-18T13:09:21.770Z,13.57
2024-04-18T13:19:24.609Z,13.23
2024-04-18T13:29:27.451Z,13.11
2024-04-18T13:39:51.789Z,15.63
2024-04-18T13:49:54.701Z,13.51
2024-04-18T13:59:57.426Z,12.95
2024-04-18T14:10:19.424Z,14.62
2024-04-18T14:20:48.579Z,13.74
2024-04-18T14:30:51.318Z,12.94
2024-04-18T14:41:02.010Z,12.73
2024-04-18T14:51:12.547Z,12.16
2024-04-18T15:01:21.441Z,11.86
2024-04-18T15:11:25.849Z,12.75
2024-04-18T15:21:38.703Z,14.38
2024-04-18T15:31:48.065Z,14.52
2024-04-18T15:42:11.446Z,13.85
2024-04-18T15:52:22.510Z,13.00
2024-04-18T16:02:25.201Z,12.05
2024-04-18T16:12:47.840Z,11.43
2024-04-18T16:22:50.612Z,11.32
2024-04-18T16:33:02.485Z,12.37
2024-04-18T16:43:07.015Z,11.27
2024-04-18T16:53:29.063Z,10.65
2024-04-18T17:03:50.277Z,10.35
2024-04-18T17:14:08.785Z,10.18
2024-04-18T17:24:12.930Z,10.02
2024-04-18T17:34:34.042Z,9.68
2024-04-18T17:44:43.152Z,9.27
2024-04-18T17:55:01.869Z,8.90
2024-04-18T18:05:05.356Z,8.35
2024-04-18T18:15:09.075Z,8.19
2024-04-18T18:25:11.757Z,8.12
2024-04-18T18:35:14.662Z,7.97
2024-04-18T18:45:19.438Z,7.67
2024-04-18T18:55:22.115Z,7.44
2024-04-18T19:05:47.846Z,7.39
2024-04-18T19:15:59.439Z,6.99
2024-04-18T19:26:03.140Z,6.33
2024-04-18T19:36:09.218Z,5.27
2024-04-18T19:46:13.189Z,5.18
2024-04-18T19:56:36.547Z,5.25
2024-04-18T20:06:39.952Z,5.39
2024-04-18T20:16:45.621Z,5.53
2024-04-18T20:26:49.937Z,5.47
2024-04-18T20:36:53.886Z,5.42
2024-04-18T20:46:57.947Z,5.41
2024-04-18T20:57:00.693Z,5.14
2024-04-18T21:07:03.499Z,4.94
2024-04-18T21:17:06.635Z,4.77
2024-04-18T21:27:09.881Z,4.53
2024-04-18T21:37:12.752Z,4.00
2024-04-18T21:47:16.015Z,3.99
2024-04-18T21:57:20.448Z,4.20
2024-04-18T22:07:23.104Z,4.51
2024-04-18T22:17:25.731Z,4.68
2024-04-18T22:27:28.443Z,4.74
2024-04-18T22:37:31.120Z,4.89
2024-04-18T22:47:33.806Z,5.00
2024-04-18T22:57:36.567Z,5.07
2024-04-18T23:07:39.396Z,4.99
2024-04-18T23:18:01.748Z,4.81
2024-04-18T23:28:04.680Z,4.72
2024-04-18T23:38:07.354Z,4.39
2024-04-18T23:48:10.400Z,4.37
2024-04-18T23:58:13.225Z,4.55
